Latest Coastal Weather Observations for Yamba

IDN60701

Issued at 12:05 am EST Monday 22 September 2014 (issued every 10 minutes, with the page automatically refreshed every 10 minutes)

About coastal observations | Map of coastal stations | Coastal observations for NSW | Marine services | Other Formats
Station Details ID: 058012 Name: YAMBA PILOT STATION Lat: -29.43 Lon: 153.36 Height: 27.4 m
Data from the previous 72 hours. | See also: Recent months at Yamba
Date/Time
EST
Temp

°C
Wind Pressure Rain
since 9am
mm
Weather Cloud Vis
km
Sea
Height
m
Swell
Dir
 
Speed
knots
Gust
knots
hPa Trend Height
m
Period
s
Dir
22/12:00am 18.1 SE 13 16 1028.3 - 3.4 - - - - - - -
 
Date/Time
EST
Temp

°C
Wind Pressure Rain
since 9am
mm
Weather Cloud Vis
km
Sea
Height
m
Swell
Dir
 
Speed
knots
Gust
knots
hPa Trend Height
m
Period
s
Dir
21/11:30pm 17.9 ESE 9 15 1028.5 - 3.4 - - - - - - -
21/11:00pm 18.0 E 10 14 1028.3 - 3.4 - - - - - - -
21/10:30pm 17.4 ESE 8 11 1028.7 - 3.4 - - - - - - -
21/10:00pm 17.6 SE 16 22 1029.0 - 3.4 - - - - - - -
21/09:30pm 17.9 ESE 9 13 1028.9 - 3.4 - - - - - - -
21/09:00pm 18.1 ESE 11 16 1028.9 - 3.4 - - - - - - -
21/08:30pm 18.1 ESE 12 19 1028.9 - 3.4 - - - - - - -
21/08:00pm 17.9 SE 14 19 1028.6 - 3.4 - - - - - - -
21/07:30pm 18.0 SE 16 19 1028.1 - 3.4 - - - - - - -
21/07:00pm 18.1 SE 16 20 1027.6 - 3.4 - - - - - - -
21/06:30pm 17.9 SE 17 23 1027.0 - 3.4 - - - - - - -
21/06:00pm 18.0 SE 17 22 1026.7 - 3.4 - - - - - - -
21/05:30pm 17.8 SE 19 24 1026.4 - 3.4 - - - - - - -
21/05:00pm 18.1 SE 17 23 1026.3 - 3.4 - - - - - - -
21/04:30pm 18.0 SE 17 22 1026.3 - 3.4 - - - - - - -
21/04:00pm 17.6 SSE 14 20 1026.2 - 3.4 - - - - - - -
21/03:30pm 16.7 S 9 13 1026.2 - 3.2 - - - - - - -
21/03:00pm 16.2 SSE 7 19 1026.3 R 3.2 Distant precip. Cloudy 30 3 2.0 9 SE
21/02:30pm 15.8 SSE 14 20 1026.3 - 0.4 - - - - - - -
21/02:29pm 15.6 SSE 11 17 1026.3 - 0.4 - - - - - - -
21/02:00pm 17.1 SE 21 27 1026.1 - 0.0 - - - - - - -
21/01:44pm 19.9 SSE 15 25 1026.0 - 0.0 - - - - - - -
21/01:43pm 19.9 SSE 15 25 1026.0 - 0.0 - - - - - - -
21/01:30pm 19.5 SSE 12 19 1026.2 - 0.0 - - - - - - -
21/01:00pm 19.4 SSE 12 18 1026.7 - 0.0 - - - - - - -
21/12:30pm 19.5 SSE 13 20 1026.7 - 0.0 - - - - - - -
21/12:00pm 19.9 SSE 14 21 1026.7 - 0.0 - - - - - - -
21/11:30am 19.6 SSE 13 22 1027.1 - 0.0 - - - - - - -
21/11:00am 19.1 SSE 13 19 1027.4 - 0.0 - - - - - - -
21/10:30am 19.9 SSE 12 19 1028.1 - 0.0 - - - - - - -
21/10:00am 18.8 SSE 11 19 1028.0 - 0.0 - - - - - - -
21/09:30am 17.7 SSE 13 18 1028.1 - 0.0 - - - - - - -
21/09:00am 17.5 S 7 13 1027.9 R 11.6 Fine Mostly cloudy 35 3 2.0 9 SE
21/08:30am 16.7 SSW 6 9 1027.6 - 11.6 - - - - - - -
21/08:00am 14.8 SW 5 7 1027.7 - 11.6 - - - - - - -
21/07:30am 14.4 SW 5 9 1027.3 - 11.6 - - - - - - -
21/07:00am 13.0 WSW 4 6 1027.1 - 11.6 - - - - - - -
21/06:30am 12.4 SW 5 7 1026.4 - 11.6 - - - - - - -
21/06:00am 12.0 WSW 5 7 1026.2 - 11.6 - - - - - - -
21/05:30am 12.3 SSW 6 9 1025.6 - 11.6 - - - - - - -
21/05:00am 12.2 SW 5 8 1025.5 - 11.6 - - - - - - -
21/04:30am 12.3 SSW 6 9 1025.2 - 11.6 - - - - - - -
21/04:00am 11.8 SW 6 11 1024.9 - 11.6 - - - - - - -
21/03:30am 11.4 SW 5 7 1024.8 - 11.6 - - - - - - -
21/03:00am 11.1 WSW 5 7 1024.8 - 11.6 - - - - - - -
21/02:30am 11.5 WSW 5 8 1025.1 - 11.6 - - - - - - -
21/02:00am 11.9 W 6 9 1025.5 - 11.6 - - - - - - -
21/01:30am 12.3 WSW 5 8 1025.9 - 9.8 - - - - - - -
21/01:00am 12.8 SW 6 10 1026.0 - 8.8 - - - - - - -
21/12:30am 14.0 WSW 4 6 1025.8 - 7.2 - - - - - - -
21/12:00am 14.9 SW 6 16 1025.9 - 5.8 - - - - - - -
 
Date/Time
EST
Temp

°C
Wind Pressure Rain
since 9am
mm
Weather Cloud Vis
km
Sea
Height
m
Swell
Dir
 
Speed
knots
Gust
knots
hPa Trend Height
m
Period
s
Dir
20/11:30pm 15.3 SW 4 7 1025.8 - 0.2 - - - - - - -
20/11:00pm 17.7 SSE 9 15 1025.7 - 0.2 - - - - - - -
20/10:30pm 17.8 SSE 11 15 1025.6 - 0.2 - - - - - - -
20/10:00pm 17.9 SSE 12 17 1025.6 - 0.2 - - - - - - -
20/09:30pm 18.0 SE 11 15 1025.5 - 0.2 - - - - - - -
20/09:00pm 17.9 SE 12 16 1025.1 - 0.2 - - - - - - -
20/08:30pm 17.9 SE 11 15 1025.0 - 0.2 - - - - - - -
20/08:00pm 18.0 SE 13 17 1024.6 - 0.2 - - - - - - -
20/07:30pm 17.9 SE 13 16 1024.2 - 0.2 - - - - - - -
20/07:00pm 17.9 SE 13 16 1023.9 - 0.2 - - - - - - -
20/06:30pm 18.0 SE 13 17 1023.4 - 0.2 - - - - - - -
20/06:00pm 18.0 SE 13 18 1023.0 - 0.2 - - - - - - -
20/05:30pm 18.0 SE 14 17 1022.5 - 0.2 - - - - - - -
20/05:00pm 18.3 SE 14 17 1021.9 - 0.2 - - - - - - -
20/04:30pm 18.7 SE 15 18 1021.4 - 0.2 - - - - - - -
20/04:00pm 18.9 SE 14 18 1021.2 - 0.2 - - - - - - -
20/03:30pm 19.2 SE 14 17 1021.0 - 0.2 - - - - - - -
20/03:00pm 19.2 SE 14 18 1020.7 - 0.2 - - - - - - -
20/02:30pm 19.5 SE 13 16 1020.9 - 0.2 - - - - - - -
20/02:00pm 19.9 ESE 12 18 1020.8 - 0.2 - - - - - - -
20/01:30pm 19.7 SE 12 15 1021.1 - 0.2 - - - - - - -
20/01:00pm 19.8 SE 11 13 1021.3 - 0.2 - - - - - - -
20/12:30pm 19.6 SE 11 14 1021.6 - 0.2 - - - - - - -
20/12:00pm 19.9 SE 11 14 1022.0 - 0.2 - - - - - - -
20/11:30am 19.6 SE 10 13 1022.4 - 0.2 - - - - - - -
20/11:00am 19.7 SE 9 11 1022.7 - 0.2 - - - - - - -
20/10:30am 19.2 ESE 6 10 1022.9 - 0.2 - - - - - - -
20/10:00am 19.0 E 5 7 1023.0 - 0.2 - - - - - - -
20/09:30am 18.5 SE 4 5 1023.2 - 0.0 - - - - - - -
20/09:00am 18.2 W 4 7 1023.2 R 2.8 Fine Mostly clear 40 1 1.0 7 E
20/08:30am 17.5 W 5 6 1023.0 - 2.8 - - - - - - -
20/08:00am 16.8 WSW 5 7 1022.9 - 2.8 - - - - - - -
20/07:30am 15.9 SSW 5 6 1022.6 - 2.8 - - - - - - -
20/07:00am 15.1 SW 5 6 1022.3 - 2.8 - - - - - - -
20/06:30am 15.7 SE 5 8 1021.8 - 2.8 - - - - - - -
20/06:00am 16.0 ESE 7 9 1021.2 - 2.8 - - - - - - -
20/05:30am 15.5 SE 7 11 1020.9 - 2.8 - - - - - - -
20/05:00am 15.9 ESE 10 14 1020.5 - 2.8 - - - - - - -
20/04:30am 16.2 ESE 11 17 1020.4 - 2.8 - - - - - - -
20/04:00am 15.9 E 11 17 1020.0 - 2.8 - - - - - - -
20/03:30am 15.8 ESE 15 23 1019.8 - 2.8 - - - - - - -
20/03:00am 15.8 ESE 17 24 1019.7 - 2.8 - - - - - - -
20/02:30am 16.0 SE 19 25 1019.8 - 2.8 - - - - - - -
20/02:00am 16.0 SE 15 19 1020.0 - 2.8 - - - - - - -
20/01:30am 15.6 SE 19 22 1019.8 - 2.8 - - - - - - -
20/01:18am 15.8 SE 15 23 1020.0 - 2.8 - - - - - - -
20/01:00am 15.5 SSE 9 13 1020.1 - 2.8 - - - - - - -
20/12:30am 15.3 SSE 11 14 1019.8 - 2.8 - - - - - - -
20/12:00am 14.6 SSE 8 13 1019.9 - 2.8 - - - - - - -
 
Date/Time
EST
Temp

°C
Wind Pressure Rain
since 9am
mm
Weather Cloud Vis
km
Sea
Height
m
Swell
Dir
 
Speed
knots
Gust
knots
hPa Trend Height
m
Period
s
Dir
19/11:30pm 13.6 S 9 15 1020.1 - 2.8 - - - - - - -
19/11:00pm 15.8 SW 10 17 1020.2 - 1.6 - - - - - - -
19/10:30pm 17.4 ENE 2 5 1019.5 - 1.6 - - - - - - -
19/10:00pm 16.1 SSW 9 17 1019.6 - 1.6 - - - - - - -
19/09:30pm 18.6 NE 7 13 1019.2 - 1.6 - - - - - - -
19/09:00pm 19.2 E 9 14 1019.5 - 0.0 - - - - - - -
19/08:30pm 19.2 E 7 10 1019.9 - 0.0 - - - - - - -
19/08:00pm 19.0 ENE 7 11 1019.9 - 0.0 - - - - - - -
19/07:30pm 18.9 ENE 8 13 1019.5 - 0.0 - - - - - - -
19/07:00pm 18.9 ENE 8 11 1019.1 - 0.0 - - - - - - -
19/06:30pm 18.8 ENE 8 13 1018.6 - 0.0 - - - - - - -
19/06:00pm 18.8 ENE 7 12 1018.2 - 0.0 - - - - - - -
19/05:30pm 19.0 ENE 8 11 1018.0 - 0.0 - - - - - - -
19/05:00pm 19.1 ENE 7 12 1017.7 - 0.0 - - - - - - -
19/04:30pm 19.6 ENE 8 11 1017.5 - 0.0 - - - - - - -
19/04:00pm 19.9 E 7 11 1017.3 - 0.0 - - - - - - -
19/03:30pm 20.3 E 7 11 1017.3 - 0.0 - - - - - - -
19/03:00pm 20.6 E 7 10 1017.3 F 0.0 Fine Partly cloudy 40 1 1.0 7 E
19/02:30pm 20.1 E 7 11 1017.4 - 0.0 - - - - - - -
19/02:00pm 20.7 E 6 9 1017.8 - 0.0 - - - - - - -
19/01:30pm 20.8 E 6 9 1018.4 - 0.0 - - - - - - -
19/01:00pm 20.9 E 6 9 1018.9 - 0.0 - - - - - - -
19/12:30pm 20.7 E 7 10 1019.6 - 0.0 - - - - - - -
19/12:00pm 20.3 ESE 7 10 1020.0 - 0.0 - - - - - - -
19/11:30am 20.5 ESE 7 10 1020.3 - 0.0 - - - - - - -
19/11:00am 20.2 SE 8 10 1020.8 - 0.0 - - - - - - -
19/10:30am 20.1 SE 8 11 1021.1 - 0.0 - - - - - - -
19/10:00am 19.5 SE 7 9 1021.4 - 0.0 - - - - - - -
19/09:30am 18.7 SSW 3 6 1021.7 - 0.0 - - - - - - -
19/09:00am 17.8 WSW 5 7 1022.1 R 0.0 Fine Mostly clear 40 1 1.0 7 E
19/08:30am 16.3 W 6 8 1022.0 - 0.0 - - - - - - -
19/08:00am 15.0 WSW 5 8 1021.9 - 0.0 - - - - - - -
19/07:30am 13.0 WSW 7 9 1021.6 - 0.0 - - - - - - -
19/07:00am 11.5 WSW 7 10 1021.4 - 0.0 - - - - - - -
19/06:30am 10.4 WSW 8 11 1021.1 - 0.0 - - - - - - -
19/06:00am 10.1 WSW 7 10 1020.8 - 0.0 - - - - - - -
19/05:30am 10.1 WSW 7 9 1020.5 - 0.0 - - - - - - -
19/05:00am 10.2 WSW 8 9 1020.3 - 0.0 - - - - - - -
19/04:30am 10.2 WSW 8 9 1020.0 - 0.0 - - - - - - -
19/04:00am 10.4 WSW 7 9 1020.0 - 0.0 - - - - - - -
19/03:30am 10.8 WSW 6 8 1019.6 - 0.0 - - - - - - -
19/03:00am 11.3 WSW 6 7 1019.6 - 0.0 - - - - - - -
19/02:30am 11.8 SW 7 9 1019.7 - 0.0 - - - - - - -
19/02:00am 11.9 SW 7 9 1020.0 - 0.0 - - - - - - -
19/01:30am 12.2 SW 6 8 1020.3 - 0.0 - - - - - - -
19/01:00am 12.3 SW 6 8 1020.3 - 0.0 - - - - - - -
19/12:30am 12.3 WSW 6 8 1020.4 - 0.0 - - - - - - -

Other Formats:

Comma delimited format used in spreadsheet applications
http://www.bom.gov.au/fwo/IDN60701/IDN60701.94589.axf

JavaScript Object Notation format (JSON) in row-major order
http://www.bom.gov.au/fwo/IDN60701/IDN60701.94589.json